Time;durP1;ratioP1;P1;durP2;ratioP2;P2;SDS_P1;SDS_P2;PMS_P1;PMS_P2;Temp;Humidity;BMP_temperature;BMP_pressure;BME280_temperature;BME280_humidity;BME280_pressure;Samples;Min_cycle;Max_cycle;Signal;HPM_P1;HPM_P2
2023/02/06 00:01:12;;;;;;;24.77;12.45;;;;;;;-2.06;89.13;98114.97;5029367;28;20049;-85
2023/02/06 00:03:38;;;;;;;25.05;12.95;;;;;;;-2.09;89.08;98112.69;5030287;28;20545;-79
2023/02/06 00:06:05;;;;;;;18.98;11.32;;;;;;;-2.10;89.20;98116.38;5038697;28;20068;-83
2023/02/06 00:08:33;;;;;;;23.38;11.35;;;;;;;-2.09;89.50;98123.38;5028915;28;20050;-81
2023/02/06 00:11:03;;;;;;;19.70;11.05;;;;;;;-2.09;89.46;98126.03;5029733;28;20049;-83
2023/02/06 00:13:29;;;;;;;18.98;10.48;;;;;;;-2.07;89.64;98121.34;5034457;28;20498;-81
2023/02/06 00:15:56;;;;;;;18.02;10.68;;;;;;;-2.05;89.91;98121.13;5025546;28;20042;-85
2023/02/06 00:18:22;;;;;;;17.80;10.00;;;;;;;-2.04;90.05;98120.13;5021887;28;20045;-83
2023/02/06 00:20:49;;;;;;;18.90;11.15;;;;;;;-2.06;90.16;98128.31;5026610;28;20049;-85
2023/02/06 00:23:15;;;;;;;19.02;10.98;;;;;;;-2.07;90.50;98129.34;5037740;28;20045;-84
2023/02/06 00:25:43;;;;;;;18.98;11.32;;;;;;;-2.11;90.32;98125.41;5023433;28;20057;-82
2023/02/06 00:28:09;;;;;;;19.50;11.55;;;;;;;-2.16;90.27;98127.84;5030614;28;20041;-83
2023/02/06 00:30:36;;;;;;;20.23;11.35;;;;;;;-2.19;90.43;98128.25;5033366;28;20041;-86
2023/02/06 00:33:02;;;;;;;21.58;12.38;;;;;;;-2.22;90.51;98123.28;5032637;28;20042;-85
2023/02/06 00:35:29;;;;;;;20.83;11.98;;;;;;;-2.23;90.68;98126.97;5021862;28;20053;-86
2023/02/06 00:37:55;;;;;;;21.38;11.85;;;;;;;-2.24;90.96;98131.47;5022937;28;20038;-86
2023/02/06 00:40:22;;;;;;;21.00;12.30;;;;;;;-2.26;91.16;98122.00;5040919;28;20065;-80
2023/02/06 00:42:50;;;;;;;23.20;12.52;;;;;;;-2.30;91.26;98126.91;5041494;28;20050;-84
2023/02/06 00:45:16;;;;;;;20.42;12.98;;;;;;;-2.30;91.67;98126.06;5030775;28;20051;-83
2023/02/06 00:47:43;;;;;;;25.33;14.70;;;;;;;-2.31;91.79;98129.75;5036111;28;20042;-84
2023/02/06 00:50:10;;;;;;;22.05;12.90;;;;;;;-2.33;91.94;98132.63;5039927;28;20048;-82
2023/02/06 00:52:36;;;;;;;26.23;13.02;;;;;;;-2.37;92.14;98126.84;5030676;28;20049;-83
2023/02/06 00:55:03;;;;;;;21.33;12.68;;;;;;;-2.45;92.18;98129.66;5038168;28;20465;-81
2023/02/06 00:57:29;;;;;;;23.60;13.38;;;;;;;-2.55;92.45;98136.34;5041225;28;20050;-81
2023/02/06 00:59:57;;;;;;;22.42;13.15;;;;;;;-2.57;92.81;98135.69;5032724;28;20049;-82
2023/02/06 01:02:24;;;;;;;21.75;12.25;;;;;;;-2.58;92.97;98145.53;5037724;28;20053;-84
2023/02/06 01:04:50;;;;;;;21.25;13.18;;;;;;;-2.61;93.18;98151.25;5024915;28;20045;-81
2023/02/06 01:07:17;;;;;;;22.90;12.85;;;;;;;-2.62;93.04;98157.59;5023431;28;20050;-83
2023/02/06 01:09:43;;;;;;;25.92;13.80;;;;;;;-2.67;92.94;98146.66;5035320;28;20050;-81
2023/02/06 01:12:10;;;;;;;22.33;12.82;;;;;;;-2.68;92.89;98150.34;5030174;28;20049;-83
2023/02/06 01:14:36;;;;;;;22.63;14.00;;;;;;;-2.68;92.95;98153.03;5040423;28;20504;-81
2023/02/06 01:17:04;;;;;;;22.70;13.88;;;;;;;-2.68;93.09;98145.84;5039250;28;20053;-84
2023/02/06 01:19:31;;;;;;;23.90;12.65;;;;;;;-2.67;93.26;98139.47;5020872;28;20049;-80
2023/02/06 01:21:57;;;;;;;25.88;13.43;;;;;;;-2.66;93.37;98137.69;5027669;28;20085;-84
2023/02/06 01:24:24;;;;;;;26.27;13.75;;;;;;;-2.66;93.60;98127.81;5023873;28;20053;-85
2023/02/06 01:26:50;;;;;;;26.25;14.75;;;;;;;-2.65;93.86;98133.97;5032911;28;20056;-87
2023/02/06 01:29:17;;;;;;;24.63;14.15;;;;;;;-2.65;93.66;98136.66;5036978;28;20049;-84
2023/02/06 01:31:43;;;;;;;22.73;13.27;;;;;;;-2.63;93.73;98137.28;5021305;28;20049;-84
2023/02/06 01:34:11;;;;;;;23.45;14.13;;;;;;;-2.63;93.77;98145.28;5038233;28;20045;-81
2023/02/06 01:36:38;;;;;;;24.23;15.10;;;;;;;-2.66;93.56;98143.84;5034199;28;20053;-87
2023/02/06 01:39:05;;;;;;;23.08;13.55;;;;;;;-2.67;93.57;98157.31;5029747;28;20134;-82
2023/02/06 01:41:32;;;;;;;21.73;13.15;;;;;;;-2.68;93.76;98151.16;5036566;28;20049;-84
2023/02/06 01:44:12;;;;;;;21.63;13.23;;;;;;;-2.62;94.02;98149.59;5020982;28;20056;-81
2023/02/06 01:46:40;;;;;;;20.95;12.50;;;;;;;-2.53;94.14;98153.78;5034473;28;20519;-81
2023/02/06 01:49:09;;;;;;;22.65;13.15;;;;;;;-2.43;94.21;98146.28;5031063;28;20466;-82
2023/02/06 01:51:38;;;;;;;23.55;13.85;;;;;;;-2.31;94.11;98157.28;5022934;28;20060;-81
2023/02/06 01:54:07;;;;;;;23.70;13.13;;;;;;;-2.21;93.71;98146.28;5031664;28;20508;-83
2023/02/06 01:56:38;;;;;;;23.02;13.77;;;;;;;-2.12;93.27;98145.94;5040128;28;20046;-82
2023/02/06 01:59:05;;;;;;;25.67;13.95;;;;;;;-2.06;93.03;98149.69;5023431;28;20046;-84
2023/02/06 02:01:32;;;;;;;21.08;13.05;;;;;;;-2.02;92.42;98150.13;5029123;28;20399;-83
2023/02/06 02:04:04;;;;;;;23.40;13.02;;;;;;;-2.05;91.99;98142.50;5020625;28;20113;-82
2023/02/06 02:06:31;;;;;;;24.05;13.38;;;;;;;-2.10;91.45;98137.72;5028394;28;20042;-80
2023/02/06 02:09:00;;;;;;;20.98;13.10;;;;;;;-2.07;91.17;98137.34;5021367;28;20054;-82
2023/02/06 02:11:30;;;;;;;23.67;14.13;;;;;;;-2.08;91.00;98135.72;5024632;28;20060;-83
2023/02/06 02:13:57;;;;;;;26.33;14.30;;;;;;;-2.06;91.00;98136.34;5024382;28;20054;-81
2023/02/06 02:16:35;;;;;;;23.80;13.65;;;;;;;-2.00;91.02;98138.22;5020073;28;20061;-85
2023/02/06 02:19:29;;;;;;;28.48;14.70;;;;;;;-1.92;91.35;98147.94;5028303;28;20053;-82
2023/02/06 02:22:40;;;;;;;25.33;14.82;;;;;;;-1.84;91.53;98147.78;4989597;28;20060;-82
2023/02/06 02:25:42;;;;;;;22.90;14.68;;;;;;;-1.78;91.57;98151.50;5028268;28;20050;-83
2023/02/06 02:28:42;;;;;;;24.45;14.32;;;;;;;-1.77;91.70;98153.19;5019072;28;20049;-84
2023/02/06 02:31:50;;;;;;;23.50;13.45;;;;;;;-1.78;91.61;98146.16;5030618;28;20053;-81
2023/02/06 02:35:01;;;;;;;19.10;12.30;;;;;;;-1.85;91.68;98138.13;4968588;28;20056;-83
2023/02/06 02:37:34;;;;;;;24.10;13.63;;;;;;;-1.96;91.62;98134.16;5018194;28;20065;-81
2023/02/06 02:40:08;;;;;;;20.10;12.77;;;;;;;-2.05;91.47;98121.97;5041823;28;20438;-83
2023/02/06 02:42:41;;;;;;;20.33;12.60;;;;;;;-2.13;91.52;98122.13;5027684;28;20041;-88
2023/02/06 02:45:13;;;;;;;20.00;12.27;;;;;;;-2.21;91.00;98130.25;5022264;28;20057;-84
2023/02/06 02:47:46;;;;;;;22.60;13.00;;;;;;;-2.30;91.02;98126.06;5021592;28;20057;-83
2023/02/06 02:50:16;;;;;;;24.95;13.15;;;;;;;-2.38;91.28;98125.19;5020969;28;20085;-84
2023/02/06 02:52:43;;;;;;;20.27;12.63;;;;;;;-2.44;91.58;98120.63;5024127;28;20053;-80
2023/02/06 02:55:20;;;;;;;22.10;13.50;;;;;;;-2.48;91.51;98114.03;5032155;28;20057;-82
2023/02/06 02:57:49;;;;;;;22.08;12.88;;;;;;;-2.54;91.44;98117.47;5033159;28;20425;-83
2023/02/06 03:00:17;;;;;;;20.67;12.88;;;;;;;-2.59;91.56;98121.72;5027165;28;20061;-82
2023/02/06 03:02:48;;;;;;;22.25;12.73;;;;;;;-2.70;91.74;98123.06;5032348;28;20045;-86
2023/02/06 03:05:20;;;;;;;21.27;12.43;;;;;;;-2.71;91.98;98124.09;5039877;28;20045;-83
2023/02/06 03:07:56;;;;;;;19.52;11.35;;;;;;;-2.71;91.66;98134.75;5036788;28;20041;-84
2023/02/06 03:10:33;;;;;;;18.70;11.43;;;;;;;-2.74;91.56;98135.94;5037952;28;20049;-84
2023/02/06 03:13:07;;;;;;;19.48;12.82;;;;;;;-2.79;91.28;98145.53;5035150;28;20050;-84
2023/02/06 03:15:41;;;;;;;20.80;13.15;;;;;;;-2.90;90.23;98144.19;5030468;28;20043;-85
2023/02/06 03:18:13;;;;;;;23.48;13.80;;;;;;;-3.02;89.77;98138.53;5031569;28;20061;-83
2023/02/06 03:20:44;;;;;;;22.27;13.20;;;;;;;-3.07;89.79;98135.59;5039725;28;20419;-85
2023/02/06 03:23:14;;;;;;;22.58;13.35;;;;;;;-3.09;90.15;98129.59;5029186;28;20053;-84
2023/02/06 03:25:42;;;;;;;23.67;13.57;;;;;;;-3.10;90.63;98135.13;5022280;28;20054;-83
2023/02/06 03:28:15;;;;;;;24.05;13.65;;;;;;;-3.16;90.99;98150.03;5029700;28;20507;-83
2023/02/06 03:30:47;;;;;;;22.83;13.85;;;;;;;-3.22;91.13;98158.78;5030331;28;20060;-83
2023/02/06 03:33:16;;;;;;;20.48;12.45;;;;;;;-3.24;91.27;98156.28;5033253;28;20119;-82
2023/02/06 03:35:45;;;;;;;20.33;12.90;;;;;;;-3.25;91.56;98153.81;5028437;28;20049;-86
2023/02/06 03:38:12;;;;;;;21.17;12.98;;;;;;;-3.26;91.91;98152.97;5036377;28;20049;-85
2023/02/06 03:40:43;;;;;;;22.38;12.82;;;;;;;-3.26;92.12;98157.50;5022032;28;20046;-88
2023/02/06 03:43:17;;;;;;;23.63;13.45;;;;;;;-3.27;92.10;98166.50;5033423;28;20129;-82
2023/02/06 03:45:46;;;;;;;21.83;12.68;;;;;;;-3.31;92.06;98165.22;5028380;28;20049;-87
2023/02/06 03:48:18;;;;;;;21.38;13.18;;;;;;;-3.35;91.83;98169.25;5039824;28;20045;-86
2023/02/06 03:50:49;;;;;;;20.13;12.63;;;;;;;-3.39;91.99;98167.97;5025749;28;20050;-86
2023/02/06 03:53:18;;;;;;;19.92;13.35;;;;;;;-3.39;92.23;98170.63;5036248;28;20053;-83
2023/02/06 03:55:47;;;;;;;23.27;13.45;;;;;;;-3.39;92.47;98171.47;5037189;28;20053;-83
2023/02/06 03:58:14;;;;;;;22.70;13.77;;;;;;;-3.39;92.53;98165.28;5025460;28;20060;-87
2023/02/06 04:00:43;;;;;;;26.23;14.23;;;;;;;-3.41;92.76;98166.31;5040448;28;20414;-83
2023/02/06 04:03:11;;;;;;;27.15;14.32;;;;;;;-3.42;93.00;98164.66;5041487;28;20056;-82
2023/02/06 04:05:38;;;;;;;24.52;14.00;;;;;;;-3.42;93.01;98159.34;5034282;28;20050;-86
2023/02/06 04:08:06;;;;;;;27.02;14.20;;;;;;;-3.44;93.13;98156.03;5033207;28;20049;-87
2023/02/06 04:10:33;;;;;;;24.02;14.20;;;;;;;-3.46;93.27;98152.72;5034037;28;20061;-85
2023/02/06 04:12:59;;;;;;;24.83;13.73;;;;;;;-3.47;93.21;98156.41;5042359;28;20045;-85
2023/02/06 04:15:26;;;;;;;25.90;13.73;;;;;;;-3.47;93.31;98140.41;5041662;28;20057;-86
2023/02/06 04:17:52;;;;;;;23.13;13.10;;;;;;;-3.47;93.17;98140.41;5026174;28;20060;-84
2023/02/06 04:20:19;;;;;;;23.30;13.18;;;;;;;-3.47;93.20;98128.94;5028541;28;20045;-86
2023/02/06 04:22:45;;;;;;;21.17;12.23;;;;;;;-3.49;93.35;98121.16;5028262;28;20050;-85
2023/02/06 04:25:13;;;;;;;22.85;12.93;;;;;;;-3.49;93.32;98123.81;5043278;28;20045;-89
2023/02/06 04:27:40;;;;;;;23.80;13.18;;;;;;;-3.49;93.54;98115.81;5045972;28;20049;-83
2023/02/06 04:30:08;;;;;;;22.95;12.90;;;;;;;-3.50;93.58;98114.19;5043337;28;20060;-84
2023/02/06 04:32:35;;;;;;;23.00;12.90;;;;;;;-3.49;93.58;98125.66;5024993;28;20443;-83
2023/02/06 04:35:01;;;;;;;21.10;12.27;;;;;;;-3.51;93.68;98115.16;5032947;28;20049;-82
2023/02/06 04:37:28;;;;;;;22.55;13.05;;;;;;;-3.54;93.79;98112.88;5045101;28;20096;-84
2023/02/06 04:39:54;;;;;;;23.88;13.18;;;;;;;-3.56;94.02;98104.25;5043852;28;20060;-89
2023/02/06 04:42:22;;;;;;;22.48;12.70;;;;;;;-3.55;94.01;98105.91;5034781;28;20053;-86
2023/02/06 04:44:48;;;;;;;20.67;12.65;;;;;;;-3.56;94.07;98101.56;5037131;28;20049;-84
2023/02/06 04:47:15;;;;;;;22.05;13.02;;;;;;;-3.57;93.91;98097.28;5024020;28;20056;-84
2023/02/06 04:49:42;;;;;;;22.25;12.68;;;;;;;-3.59;93.80;98109.97;5037682;28;20077;-86
2023/02/06 04:52:08;;;;;;;21.00;11.73;;;;;;;-3.60;93.60;98112.78;5036530;28;20049;-82
2023/02/06 04:54:35;;;;;;;24.83;13.27;;;;;;;-3.64;92.85;98112.34;5036054;28;20049;-88
2023/02/06 04:57:01;;;;;;;20.95;12.25;;;;;;;-3.74;91.96;98123.28;5025207;28;20427;-88
2023/02/06 04:59:29;;;;;;;23.23;12.93;;;;;;;-3.82;91.46;98125.19;5030368;28;20050;-85
2023/02/06 05:01:56;;;;;;;24.73;12.82;;;;;;;-3.87;91.44;98127.56;5022520;28;20053;-86
2023/02/06 05:04:22;;;;;;;21.40;12.77;;;;;;;-3.90;91.21;98122.63;5026412;28;20041;-82
2023/02/06 05:06:49;;;;;;;22.77;12.15;;;;;;;-3.92;91.34;98113.97;5028161;28;20046;-82
2023/02/06 05:09:15;;;;;;;21.42;12.32;;;;;;;-3.96;91.70;98108.22;5030354;28;20052;-85
2023/02/06 05:11:42;;;;;;;22.55;12.60;;;;;;;-3.95;92.23;98110.69;5022262;28;20692;-84
2023/02/06 05:14:08;;;;;;;21.48;12.27;;;;;;;-3.95;92.60;98123.16;5032392;28;20052;-82
2023/02/06 05:16:36;;;;;;;23.55;12.57;;;;;;;-3.94;93.05;98117.66;5035733;28;20049;-85
2023/02/06 05:19:02;;;;;;;21.75;12.38;;;;;;;-3.95;93.28;98116.00;5030279;28;20435;-86
2023/02/06 05:21:29;;;;;;;21.60;12.68;;;;;;;-3.95;93.34;98120.50;5029823;28;20058;-80
2023/02/06 05:23:55;;;;;;;22.13;12.88;;;;;;;-3.95;93.52;98105.38;5025212;28;20049;-88
2023/02/06 05:26:22;;;;;;;23.23;12.85;;;;;;;-3.95;93.45;98105.38;5032397;28;20057;-86
2023/02/06 05:28:48;;;;;;;23.15;13.20;;;;;;;-3.97;93.33;98096.75;5041765;28;20056;-84
2023/02/06 05:31:18;;;;;;;22.75;12.43;;;;;;;-3.97;93.19;98096.75;5033850;28;20465;-87
2023/02/06 05:33:47;;;;;;;24.55;13.25;;;;;;;-3.97;93.25;98088.78;5043981;28;20109;-84
2023/02/06 05:36:14;;;;;;;25.85;12.80;;;;;;;-3.98;93.32;98095.06;5025377;28;20042;-88
2023/02/06 05:38:40;;;;;;;23.77;13.23;;;;;;;-3.97;93.53;98090.56;5030675;28;20045;-85
2023/02/06 05:41:07;;;;;;;18.55;11.65;;;;;;;-4.00;93.78;98099.78;5035469;28;20053;-83
2023/02/06 05:43:33;;;;;;;23.23;13.32;;;;;;;-3.99;94.05;98103.25;5025349;28;20057;-86
2023/02/06 05:46:00;;;;;;;23.25;12.95;;;;;;;-3.99;94.03;98092.59;5032826;28;20049;-86
2023/02/06 05:48:27;;;;;;;23.85;12.85;;;;;;;-3.99;94.22;98082.78;5028391;28;20049;-85
2023/02/06 05:50:56;;;;;;;21.92;12.48;;;;;;;-3.99;94.21;98087.28;5033014;28;20054;-86
2023/02/06 05:53:23;;;;;;;22.63;12.07;;;;;;;-4.01;94.30;98095.47;5038978;28;20581;-83
2023/02/06 05:55:49;;;;;;;22.08;12.98;;;;;;;-4.01;94.02;98095.47;5040942;28;20053;-81
2023/02/06 05:58:16;;;;;;;24.27;13.15;;;;;;;-4.07;93.39;98096.19;5042148;28;20049;-88
2023/02/06 06:00:43;;;;;;;23.17;12.75;;;;;;;-4.15;92.58;98088.28;5035949;28;20072;-85
2023/02/06 06:03:09;;;;;;;23.17;13.35;;;;;;;-4.22;92.08;98090.03;5034557;28;20041;-85
2023/02/06 06:05:36;;;;;;;26.70;14.13;;;;;;;-4.22;92.13;98098.00;5033219;28;20053;-85
2023/02/06 06:08:04;;;;;;;23.52;13.20;;;;;;;-4.23;92.26;98091.00;5032196;28;20050;-84
2023/02/06 06:10:31;;;;;;;23.00;13.27;;;;;;;-4.26;92.23;98094.06;5037973;28;20069;-82
2023/02/06 06:12:57;;;;;;;24.60;13.38;;;;;;;-4.25;92.53;98095.69;5022096;28;20514;-84
2023/02/06 06:15:24;;;;;;;22.95;12.98;;;;;;;-4.27;92.71;98093.22;5018420;28;20045;-83
2023/02/06 06:17:50;;;;;;;24.20;13.43;;;;;;;-4.27;92.81;98100.38;5035964;28;20056;-86
2023/02/06 06:20:17;;;;;;;23.08;13.20;;;;;;;-4.26;92.95;98104.69;5029743;28;20056;-84
2023/02/06 06:22:44;;;;;;;22.40;13.60;;;;;;;-4.26;93.20;98108.19;5041740;28;20050;-82
2023/02/06 06:25:11;;;;;;;21.75;12.93;;;;;;;-4.27;93.17;98106.53;5032596;28;20053;-84
2023/02/06 06:27:39;;;;;;;22.63;13.32;;;;;;;-4.29;92.67;98107.69;5034765;28;20053;-84
2023/02/06 06:30:06;;;;;;;24.08;13.57;;;;;;;-4.35;92.05;98111.09;5030789;28;20053;-85
2023/02/06 06:32:33;;;;;;;24.73;13.05;;;;;;;-4.37;91.75;98115.78;5030840;28;20057;-82
2023/02/06 06:34:59;;;;;;;22.85;13.10;;;;;;;-4.38;91.75;98106.97;5038709;28;20055;-87
2023/02/06 06:37:26;;;;;;;26.25;13.52;;;;;;;-4.37;92.07;98100.63;5034643;28;20052;-85
2023/02/06 06:39:52;;;;;;;28.58;13.93;;;;;;;-4.34;92.26;98100.25;5029789;28;20070;-83
2023/02/06 06:42:20;;;;;;;23.23;12.88;;;;;;;-4.31;92.48;98113.22;5033021;28;20061;-81
2023/02/06 06:44:47;;;;;;;24.40;14.18;;;;;;;-4.32;92.33;98118.72;5031278;28;20388;-83
2023/02/06 06:47:13;;;;;;;20.77;13.00;;;;;;;-4.29;92.52;98121.81;5033065;28;20049;-83
2023/02/06 06:49:40;;;;;;;26.80;14.68;;;;;;;-4.40;92.30;98110.81;5028936;28;20061;-86
2023/02/06 06:52:06;;;;;;;25.40;14.85;;;;;;;-4.46;92.55;98107.84;5019427;28;20042;-81
2023/02/06 06:54:32;;;;;;;28.88;15.30;;;;;;;-4.46;92.72;98112.34;5028346;28;20561;-82
2023/02/06 06:56:59;;;;;;;31.45;16.45;;;;;;;-4.48;92.67;98104.56;5034404;28;20422;-82
2023/02/06 06:59:27;;;;;;;32.10;16.88;;;;;;;-4.44;92.62;98104.19;5033560;28;20053;-86
2023/02/06 07:01:54;;;;;;;31.85;16.20;;;;;;;-4.39;92.84;98109.78;5026600;28;20113;-83
2023/02/06 07:04:21;;;;;;;24.02;14.10;;;;;;;-4.34;93.11;98110.06;5038663;28;20042;-82
2023/02/06 07:06:48;;;;;;;30.50;15.40;;;;;;;-4.28;93.19;98114.66;5030802;28;20046;-87
2023/02/06 07:09:15;;;;;;;26.85;13.68;;;;;;;-4.20;93.31;98111.94;5020071;28;20050;-82
2023/02/06 07:11:41;;;;;;;29.08;15.63;;;;;;;-4.12;93.43;98108.38;5035566;28;20049;-86
2023/02/06 07:14:07;;;;;;;28.13;15.52;;;;;;;-4.06;93.33;98123.63;5032612;28;20422;-81
2023/02/06 07:16:35;;;;;;;29.88;16.00;;;;;;;-4.07;93.10;98122.81;5025962;28;20298;-83
2023/02/06 07:19:02;;;;;;;28.63;15.77;;;;;;;-4.04;93.04;98116.28;5027910;28;20073;-86
2023/02/06 07:21:28;;;;;;;28.77;15.38;;;;;;;-4.06;92.77;98108.47;5025252;28;20057;-91
2023/02/06 07:23:55;;;;;;;25.58;14.93;;;;;;;-4.04;92.75;98116.28;5025516;28;20046;-89
2023/02/06 07:26:21;;;;;;;25.15;15.13;;;;;;;-3.97;92.55;98118.03;5037270;28;20085;-86
2023/02/06 07:28:48;;;;;;;29.60;15.82;;;;;;;-4.00;92.92;98112.25;5031750;28;20054;-90
2023/02/06 07:31:15;;;;;;;32.78;17.65;;;;;;;-3.92;93.15;98111.31;5028985;28;20054;-87
2023/02/06 07:33:43;;;;;;;32.70;18.50;;;;;;;-3.80;93.48;98110.69;5028433;28;20059;-89
2023/02/06 07:36:11;;;;;;;32.60;17.23;;;;;;;-3.67;93.89;98107.38;5028965;28;20549;-86
2023/02/06 07:38:38;;;;;;;33.83;16.63;;;;;;;-3.60;93.98;98115.44;5025027;28;20053;-89
2023/02/06 07:41:04;;;;;;;28.58;15.63;;;;;;;-3.53;93.81;98119.03;5031312;28;20713;-86
2023/02/06 07:43:31;;;;;;;25.17;15.40;;;;;;;-3.50;93.48;98124.84;5040574;28;20049;-87
2023/02/06 07:46:00;;;;;;;24.30;14.90;;;;;;;-3.48;93.35;98120.13;5038074;28;20041;-88
2023/02/06 07:48:27;;;;;;;22.80;12.73;;;;;;;-3.41;93.08;98122.88;5022490;28;20055;-89
2023/02/06 07:50:55;;;;;;;22.23;12.50;;;;;;;-3.31;92.93;98122.59;5032059;28;20136;-90
2023/02/06 07:53:22;;;;;;;24.58;13.32;;;;;;;-3.27;92.79;98129.19;5034589;28;20499;-88
2023/02/06 07:55:49;;;;;;;20.92;12.25;;;;;;;-3.20;92.50;98116.78;5026300;28;20046;-91
2023/02/06 07:58:15;;;;;;;20.35;12.85;;;;;;;-3.16;92.28;98121.53;5027842;28;20056;-89
2023/02/06 08:00:42;;;;;;;22.50;12.57;;;;;;;-3.07;92.14;98124.94;5032894;28;20142;-89
2023/02/06 08:03:09;;;;;;;22.52;12.07;;;;;;;-2.99;91.81;98138.13;5017810;28;20490;-87
2023/02/06 08:05:38;;;;;;;24.55;13.18;;;;;;;-2.94;91.61;98130.41;5018285;28;20050;-89
2023/02/06 08:08:08;;;;;;;19.55;12.57;;;;;;;-2.89;91.33;98130.66;5034746;28;20288;-89
2023/02/06 08:10:37;;;;;;;21.42;12.55;;;;;;;-2.82;91.41;98132.56;5029369;28;20518;-86
2023/02/06 08:13:04;;;;;;;21.95;12.15;;;;;;;-2.90;90.99;98130.84;5022014;28;20041;-89
2023/02/06 08:15:30;;;;;;;19.55;12.35;;;;;;;-2.76;91.21;98137.16;5035022;28;20048;-89
2023/02/06 08:17:57;;;;;;;24.95;13.15;;;;;;;-2.67;90.77;98147.50;5029545;28;20047;-88
2023/02/06 08:20:24;;;;;;;19.42;12.38;;;;;;;-2.62;90.62;98149.59;5029125;28;20517;-89
2023/02/06 08:22:50;;;;;;;22.95;13.27;;;;;;;-2.53;90.12;98148.44;5023967;28;20050;-87
2023/02/06 08:25:18;;;;;;;22.45;12.77;;;;;;;-2.42;89.88;98145.28;5028166;28;20042;-90
2023/02/06 08:27:45;;;;;;;23.27;14.00;;;;;;;-2.15;89.51;98134.81;5023002;28;20413;-89
2023/02/06 08:30:13;;;;;;;21.67;12.52;;;;;;;-1.96;88.96;98134.16;5019094;28;20544;-88
2023/02/06 08:32:39;;;;;;;21.30;12.63;;;;;;;-1.77;88.60;98134.50;5036989;28;20266;-88
2023/02/06 08:35:06;;;;;;;20.27;12.07;;;;;;;-1.57;87.95;98143.44;5036277;28;20071;-89
2023/02/06 08:37:33;;;;;;;17.88;11.18;;;;;;;-1.45;86.43;98141.88;5033189;28;20514;-89
2023/02/06 08:40:00;;;;;;;18.13;11.07;;;;;;;-1.29;85.44;98131.88;5018084;28;20052;-87
2023/02/06 08:42:27;;;;;;;18.98;10.93;;;;;;;-1.08;84.33;98129.06;5033930;28;20049;-89
2023/02/06 08:44:54;;;;;;;18.35;10.60;;;;;;;-0.62;82.13;98129.22;5020289;28;20041;-87
2023/02/06 08:47:21;;;;;;;18.95;11.35;;;;;;;0.18;78.14;98127.38;5018979;28;20126;-85
2023/02/06 08:49:50;;;;;;;17.13;11.07;;;;;;;1.10;75.19;98125.44;5034599;28;20295;-86
2023/02/06 08:52:17;;;;;;;16.80;9.77;;;;;;;1.42;70.41;98128.97;5020672;28;20467;-89
2023/02/06 08:54:43;;;;;;;15.85;9.70;;;;;;;1.54;70.13;98121.06;5027278;28;20053;-88
2023/02/06 08:57:11;;;;;;;15.20;9.75;;;;;;;1.22;68.79;98117.53;5025408;28;20058;-88
2023/02/06 08:59:40;;;;;;;14.77;9.27;;;;;;;1.23;70.05;98125.38;5017257;28;20077;-89
2023/02/06 09:02:07;;;;;;;15.23;9.43;;;;;;;1.08;68.46;98132.03;5024266;28;20050;-88
2023/02/06 09:04:36;;;;;;;14.15;8.90;;;;;;;0.69;70.52;98136.53;5017545;28;20046;-84
2023/02/06 09:07:02;;;;;;;15.90;9.55;;;;;;;0.49;71.75;98139.28;5025932;28;20137;-87
2023/02/06 09:09:29;;;;;;;15.55;8.93;;;;;;;0.30;72.53;98137.44;5033462;28;20511;-89
2023/02/06 09:12:00;;;;;;;16.40;10.02;;;;;;;0.32;72.58;98136.22;5033879;28;20073;-89
2023/02/06 09:14:28;;;;;;;15.68;9.02;;;;;;;0.12;73.00;98128.19;5009661;28;20141;-88
2023/02/06 09:16:57;;;;;;;14.23;8.68;;;;;;;0.31;73.17;98131.88;5024665;28;20054;-88
2023/02/06 09:19:23;;;;;;;13.32;8.10;;;;;;;0.35;72.53;98127.75;5021157;28;20053;-87
2023/02/06 09:21:50;;;;;;;13.73;8.23;;;;;;;0.53;72.67;98137.81;5016135;28;20057;-86
2023/02/06 09:24:16;;;;;;;16.20;8.48;;;;;;;0.65;71.17;98138.81;5014480;28;20510;-86
2023/02/06 09:26:43;;;;;;;14.52;8.73;;;;;;;0.67;72.30;98134.06;5028029;28;20049;-87
2023/02/06 09:29:11;;;;;;;12.20;8.38;;;;;;;0.76;71.58;98140.84;5023245;28;20046;-86
2023/02/06 09:31:40;;;;;;;14.75;7.93;;;;;;;0.65;71.85;98135.31;5014265;28;20054;-88
2023/02/06 09:34:09;;;;;;;14.73;8.70;;;;;;;0.50;71.33;98138.22;5030896;28;20518;-86
2023/02/06 09:36:36;;;;;;;12.68;7.70;;;;;;;0.54;70.25;98141.31;5026365;28;20045;-88
2023/02/06 09:39:05;;;;;;;13.13;9.18;;;;;;;0.73;70.69;98135.91;5018148;28;20419;-89
2023/02/06 09:41:38;;;;;;;12.95;7.78;;;;;;;1.00;70.39;98130.44;5026826;28;20050;-88
2023/02/06 09:44:10;;;;;;;11.73;6.97;;;;;;;0.93;67.84;98129.63;5019142;28;20052;-88
2023/02/06 09:46:44;;;;;;;12.75;7.40;;;;;;;1.25;68.09;98128.66;5030568;28;20050;-90
2023/02/06 09:49:16;;;;;;;12.68;7.22;;;;;;;1.84;65.78;98121.25;5030773;28;20049;-88
2023/02/06 09:52:12;;;;;;;13.50;8.15;;;;;;;2.55;65.18;98128.84;5024536;28;20053;-90
2023/02/06 09:54:47;;;;;;;10.98;6.80;;;;;;;2.77;60.95;98126.56;5020945;28;20076;-87
2023/02/06 09:57:24;;;;;;;12.73;6.72;;;;;;;3.01;62.06;98126.69;5032383;28;20072;-86
2023/02/06 09:59:58;;;;;;;10.68;6.47;;;;;;;2.90;59.55;98125.56;5033900;28;20073;-87
2023/02/06 10:02:38;;;;;;;11.70;6.38;;;;;;;2.99;59.81;98134.16;5019715;28;20124;-87
2023/02/06 10:05:17;;;;;;;11.93;6.15;;;;;;;2.88;59.79;98127.69;5031202;28;20076;-84
2023/02/06 10:08:01;;;;;;;11.82;6.50;;;;;;;2.86;61.26;98133.25;5024631;28;20046;-89
2023/02/06 10:10:36;;;;;;;13.75;6.93;;;;;;;2.86;59.65;98117.13;5020010;28;20060;-83
2023/02/06 10:13:09;;;;;;;9.65;5.97;;;;;;;2.98;60.12;98117.19;5033800;28;20054;-85
2023/02/06 10:15:41;;;;;;;9.75;6.25;;;;;;;2.58;60.62;98119.53;5025813;28;20050;-85
2023/02/06 10:18:13;;;;;;;11.93;7.03;;;;;;;2.39;59.87;98118.66;5031782;28;20041;-89
2023/02/06 10:20:49;;;;;;;12.55;6.13;;;;;;;2.28;60.09;98116.72;5035621;28;20049;-88
2023/02/06 10:23:21;;;;;;;11.50;6.20;;;;;;;1.51;61.51;98102.69;5037155;28;20052;-89
2023/02/06 10:26:03;;;;;;;10.02;6.28;;;;;;;1.75;62.52;98090.31;5028036;28;20109;-85
2023/02/06 10:28:31;;;;;;;9.27;6.13;;;;;;;1.79;62.88;98086.97;5028525;28;20050;-87
2023/02/06 10:31:09;;;;;;;10.18;5.90;;;;;;;1.56;64.54;98081.38;5031243;28;20049;-83
2023/02/06 10:33:44;;;;;;;10.23;6.47;;;;;;;1.39;65.07;98081.09;5017105;28;20049;-86
2023/02/06 10:36:31;;;;;;;11.05;6.10;;;;;;;1.35;65.53;98073.69;5032231;28;20061;-86
2023/02/06 10:39:19;;;;;;;10.60;5.82;;;;;;;1.50;65.52;98068.81;5030010;28;20045;-87
2023/02/06 10:41:54;;;;;;;9.77;6.20;;;;;;;1.55;65.70;98058.25;5020994;28;20127;-87
2023/02/06 10:44:26;;;;;;;12.68;6.30;;;;;;;1.68;66.33;98057.34;5020400;28;20048;-88
2023/02/06 10:46:54;;;;;;;10.80;6.05;;;;;;;1.59;63.87;98056.78;5029672;28;20509;-88
2023/02/06 10:49:31;;;;;;;9.60;6.20;;;;;;;1.67;64.05;98053.84;5030745;28;20041;-88
2023/02/06 10:52:02;;;;;;;11.85;6.13;;;;;;;1.63;64.03;98039.19;5027132;28;20133;-87
2023/02/06 10:54:34;;;;;;;10.40;6.00;;;;;;;1.67;64.59;98042.25;5032693;28;20049;-86
2023/02/06 10:57:01;;;;;;;11.85;6.20;;;;;;;1.50;64.82;98040.09;5031194;28;20526;-87
2023/02/06 10:59:31;;;;;;;12.80;6.35;;;;;;;1.60;65.33;98045.00;5028461;28;20419;-83
2023/02/06 11:02:12;;;;;;;11.80;6.93;;;;;;;1.43;65.29;98033.97;5021322;28;20045;-85
2023/02/06 11:04:42;;;;;;;10.88;5.75;;;;;;;1.38;64.21;98035.69;5029157;28;20064;-87
2023/02/06 11:07:19;;;;;;;10.88;6.30;;;;;;;1.20;64.78;98033.72;5031001;28;20046;-88
2023/02/06 11:09:46;;;;;;;13.25;6.30;;;;;;;0.96;65.47;98027.28;5039507;28;20050;-86
2023/02/06 11:12:23;;;;;;;9.80;6.00;;;;;;;0.62;65.47;98031.16;5027166;28;20058;-85
2023/02/06 11:14:53;;;;;;;11.05;6.45;;;;;;;0.51;66.83;98024.63;5029664;28;20105;-86
2023/02/06 11:17:22;;;;;;;11.02;6.95;;;;;;;0.57;67.64;98026.44;5008136;23;20093;-77
2023/02/06 11:19:53;;;;;;;10.98;6.60;;;;;;;0.77;68.53;98024.50;5010370;28;20505;-77
2023/02/06 11:22:29;;;;;;;9.45;6.28;;;;;;;0.81;68.75;98013.34;5010184;28;20064;-77
2023/02/06 11:25:02;;;;;;;9.70;6.30;;;;;;;0.97;66.63;98007.47;5018283;28;20708;-78
2023/02/06 11:27:29;;;;;;;14.23;6.80;;;;;;;1.04;67.02;98005.56;5011110;28;20054;-78
2023/02/06 11:30:02;;;;;;;11.18;6.80;;;;;;;1.24;67.52;98008.09;5010398;28;20081;-76
2023/02/06 11:32:34;;;;;;;11.45;6.40;;;;;;;1.32;66.99;98007.03;4996751;28;20046;-79